Ocean Club — WDJ3473 — position and weather

sailwx.info

Track history (hours):
 
Tides and Currents Weather Stations Pressure Air Temp Water Temp Dewpoint Dewpoint Depression Visibility Wind Speed Wind Dir Waves Ship Positions

Ocean Club

Owner: Bag Ocean Club LLC, Fernandina Beach, FL. More information available from US FCC via Universal Licensing System and Coast Guard Vessel Documentation Center.

Last reported at 2018-Apr-18 20:48 UTC. Time now 2018-Apr-19 23:23 UTC.
Position N 19°43' W 069°60'.

Length 37 m; draft 2 m.

Type: Pleasure craft. MMSI: 367768290.

Date/timePositionNaut miles runAvg speedWind from/ knotsBaromVisibWave heightAir tempDewpointWater temp
2018-Apr-18 20:48N 19°43' W 069°60'3 9.6
2018-Apr-18 20:30N 19°43' W 069°57'5 9.7
2018-Apr-18 20:00N 19°41' W 069°52'4 7.5
2018-Apr-18 19:30N 19°40' W 069°48'5 9.5
2018-Apr-18 19:00N 19°38' W 069°43'6 9.6
2018-Apr-18 18:25N 19°37' W 069°38'4 9.7
2018-Apr-18 18:00N 19°35' W 069°34'5 9.8
2018-Apr-18 17:30N 19°34' W 069°29'610.1
2018-Apr-18 16:53N 19°32' W 069°22'351 9.9
2018-Apr-17 05:39N 17°46' W 063°29'310.1
2018-Apr-17 05:18N 17°45' W 063°26'3 9.6
2018-Apr-17 04:59N 17°44' W 063°23'610.0
2018-Apr-17 04:25N 17°42' W 063°18'510.1
2018-Apr-17 03:58N 17°40' W 063°13'510.1
2018-Apr-17 03:27N 17°38' W 063°08'5 9.7
2018-Apr-17 02:59N 17°37' W 063°04'4310.2
2018-Apr-16 22:45N 17°16' W 062°24'310.9
2018-Apr-16 22:30N 17°14' W 062°21'510.8
2018-Apr-16 22:00N 17°12' W 062°17'510.4
2018-Apr-16 21:30N 17°09' W 062°12'510.1
2018-Apr-16 21:00N 17°06' W 062°07'5 9.9
2018-Apr-16 20:30N 17°04' W 062°03'5 9.9
2018-Apr-16 20:00N 17°02' W 061°58'5 9.9
2018-Apr-16 19:30N 16°60' W 061°53'5 9.8
2018-Apr-16 19:00N 17°00' W 061°48'2 4.5
2018-Apr-16 18:30N 17°01' W 061°46'0 0.0
2018-Apr-16 17:58N 17°01' W 061°46'0 0.0
2018-Apr-16 17:28N 17°01' W 061°46'0 0.0
2018-Apr-16 16:58N 17°01' W 061°46'0 0.0
2018-Apr-16 16:28N 17°01' W 061°46'0 0.0
2018-Apr-16 15:58N 17°01' W 061°46'0 0.0
2018-Apr-16 15:28N 17°01' W 061°46'0 0.0
2018-Apr-16 14:58N 17°01' W 061°46'0 0.0
2018-Apr-16 14:28N 17°01' W 061°46'0 0.0
2018-Apr-16 13:58N 17°01' W 061°46'0 0.0
2018-Apr-16 13:28N 17°01' W 061°46'0 0.0
2018-Apr-16 12:58N 17°01' W 061°46'0 0.0
2018-Apr-16 12:28N 17°01' W 061°46'0 0.0
2018-Apr-16 11:58N 17°01' W 061°46'0 0.0
2018-Apr-16 11:28N 17°01' W 061°46'0 0.0
2018-Apr-16 10:58N 17°01' W 061°46'0 0.0
2018-Apr-16 10:28N 17°01' W 061°46'0 0.0
2018-Apr-16 09:58N 17°01' W 061°46'0 0.0
2018-Apr-16 09:28N 17°01' W 061°46'0 0.0
2018-Apr-16 08:58N 17°01' W 061°46'0 0.0
2018-Apr-16 08:28N 17°01' W 061°46'0 0.0
2018-Apr-16 07:58N 17°01' W 061°46'0 0.0
2018-Apr-16 07:28N 17°01' W 061°46'0 0.0
2018-Apr-16 06:58N 17°01' W 061°46'0 0.0
2018-Apr-16 06:28N 17°01' W 061°46'0 0.0
2018-Apr-16 05:58N 17°01' W 061°46'0 0.0
2018-Apr-16 05:28N 17°01' W 061°46'0 0.0
2018-Apr-16 04:58N 17°01' W 061°46'0 0.0
2018-Apr-16 04:28N 17°01' W 061°46'0 0.0
2018-Apr-16 03:58N 17°01' W 061°46'0 0.0
2018-Apr-16 03:28N 17°01' W 061°46'0 0.0
2018-Apr-16 02:58N 17°01' W 061°46'0 0.0
2018-Apr-16 02:28N 17°01' W 061°46'0 0.0
2018-Apr-16 01:58N 17°01' W 061°46'0 0.0
2018-Apr-16 01:28N 17°01' W 061°46'0 0.0
2018-Apr-16 00:58N 17°01' W 061°46'0 0.0
2018-Apr-16 00:28N 17°01' W 061°46'0 0.0
2018-Apr-15 23:58N 17°01' W 061°46'0 0.0
2018-Apr-15 23:28N 17°01' W 061°46'0 0.0
2018-Apr-15 22:58N 17°01' W 061°46'0 0.0
2018-Apr-15 22:28N 17°01' W 061°46'0 0.0
2018-Apr-15 21:58N 17°01' W 061°46'0 0.0
2018-Apr-15 21:28N 17°01' W 061°46'0 0.0
2018-Apr-15 20:58N 17°01' W 061°46'0 0.0
2018-Apr-15 20:28N 17°01' W 061°46'0 0.0
2018-Apr-15 19:55N 17°01' W 061°46'0 0.0
2018-Apr-15 19:28N 17°01' W 061°46'0 0.0
2018-Apr-15 18:58N 17°01' W 061°46'0 0.0
2018-Apr-15 18:28N 17°01' W 061°46'0 0.0
2018-Apr-15 17:58N 17°01' W 061°46'0 0.0
2018-Apr-15 17:28N 17°01' W 061°46'0 0.0
2018-Apr-15 16:58N 17°01' W 061°46'0 0.0
2018-Apr-15 16:28N 17°01' W 061°46'0 0.0
2018-Apr-15 15:58N 17°01' W 061°46'0 0.0
2018-Apr-15 15:28N 17°01' W 061°46'0 0.0
2018-Apr-15 14:58N 17°01' W 061°46'0 0.0
2018-Apr-15 14:28N 17°01' W 061°46'0 0.0
2018-Apr-15 13:58N 17°01' W 061°46'0 0.0
2018-Apr-15 13:28N 17°01' W 061°46'0 0.0
2018-Apr-15 12:58N 17°01' W 061°46'0 0.0
2018-Apr-15 12:28N 17°01' W 061°46'0 0.0
2018-Apr-15 11:58N 17°01' W 061°46'0 0.0
2018-Apr-15 11:28N 17°01' W 061°46'0 0.0
2018-Apr-15 10:58N 17°01' W 061°46'0 0.0
2018-Apr-15 10:28N 17°01' W 061°46'0 0.0
2018-Apr-15 09:58N 17°01' W 061°46'0 0.0
2018-Apr-15 09:28N 17°01' W 061°46'0 0.0
2018-Apr-15 08:58N 17°01' W 061°46'0 0.0
2018-Apr-15 08:28N 17°01' W 061°46'0 0.0
2018-Apr-15 07:58N 17°01' W 061°46'0 0.0
2018-Apr-15 07:28N 17°01' W 061°46'0 0.0
2018-Apr-15 06:58N 17°01' W 061°46'0 0.0
2018-Apr-15 06:28N 17°01' W 061°46'0 0.0
2018-Apr-15 05:58N 17°01' W 061°46'0 0.0
2018-Apr-15 05:28N 17°01' W 061°46'0 0.0
2018-Apr-15 04:58N 17°01' W 061°46'0 0.0
2018-Apr-15 04:28N 17°01' W 061°46'0 0.0
2018-Apr-15 03:58N 17°01' W 061°46'0 0.0
2018-Apr-15 03:28N 17°01' W 061°46'0 0.0
2018-Apr-15 02:58N 17°01' W 061°46'0 0.0
2018-Apr-15 02:28N 17°01' W 061°46'0 0.0
2018-Apr-15 01:58N 17°01' W 061°46'0 0.0
2018-Apr-15 01:28N 17°01' W 061°46'0 0.0
2018-Apr-15 00:58N 17°01' W 061°46'0 0.0
2018-Apr-15 00:28N 17°01' W 061°46'0 0.0
2018-Apr-14 23:58N 17°01' W 061°46'0 0.0
2018-Apr-14 23:28N 17°01' W 061°46'0 0.0
2018-Apr-14 22:58N 17°01' W 061°46'0 0.0
2018-Apr-14 22:28N 17°01' W 061°46'0 0.0
2018-Apr-14 21:58N 17°01' W 061°46'0 0.0
2018-Apr-14 21:28N 17°01' W 061°46'0 0.0
2018-Apr-14 20:58N 17°01' W 061°46'0 0.0
2018-Apr-14 20:28N 17°01' W 061°46'0 0.0
2018-Apr-14 19:58N 17°01' W 061°46'0 0.0
2018-Apr-14 19:28N 17°01' W 061°46'0 0.0
2018-Apr-14 18:58N 17°01' W 061°46'0 0.0
2018-Apr-14 18:28N 17°01' W 061°46'0 0.0
2018-Apr-14 17:58N 17°01' W 061°46'0 0.0
2018-Apr-14 17:28N 17°01' W 061°46'0 0.0
2018-Apr-14 16:58N 17°01' W 061°46'0 0.0
2018-Apr-14 16:28N 17°01' W 061°46'0 0.0
2018-Apr-14 15:58N 17°01' W 061°46'0 0.0
2018-Apr-14 15:28N 17°01' W 061°46'0 0.0
2018-Apr-14 14:58N 17°01' W 061°46'0 0.0
2018-Apr-14 14:28N 17°01' W 061°46'0 0.0
2018-Apr-14 13:58N 17°01' W 061°46'0 0.0
2018-Apr-14 13:28N 17°01' W 061°46'0 0.0
2018-Apr-14 12:58N 17°01' W 061°46'0 0.0
2018-Apr-14 12:28N 17°01' W 061°46'0 0.0
2018-Apr-14 11:58N 17°01' W 061°46'0 0.0
2018-Apr-14 11:28N 17°01' W 061°46'0 0.0
2018-Apr-14 10:58N 17°01' W 061°46'0 0.0
2018-Apr-14 10:28N 17°01' W 061°46'0 0.0
2018-Apr-14 09:58N 17°01' W 061°46'0 0.0
2018-Apr-14 09:28N 17°01' W 061°46'0 0.0
2018-Apr-14 08:58N 17°01' W 061°46'0 0.0
2018-Apr-14 08:28N 17°01' W 061°46'0 0.0
2018-Apr-14 07:58N 17°01' W 061°46'0 0.0
2018-Apr-14 07:28N 17°01' W 061°46'0 0.0
2018-Apr-14 06:58N 17°01' W 061°46'0 0.0
2018-Apr-14 06:28N 17°01' W 061°46'0 0.0
2018-Apr-14 05:58N 17°01' W 061°46'0 0.0
2018-Apr-14 05:28N 17°01' W 061°46'0 0.0
2018-Apr-14 04:58N 17°01' W 061°46'0 0.0
2018-Apr-14 04:28N 17°01' W 061°46'0 0.0
2018-Apr-14 03:58N 17°01' W 061°46'0 0.0
2018-Apr-14 03:28N 17°01' W 061°46'0 0.0
2018-Apr-14 02:58N 17°01' W 061°46'0 0.0
2018-Apr-14 02:28N 17°01' W 061°46'0 0.0
2018-Apr-14 01:55N 17°01' W 061°46'0 0.0
2018-Apr-14 01:28N 17°01' W 061°46'0 0.0
2018-Apr-14 00:58N 17°01' W 061°46'0 0.0
2018-Apr-14 00:28N 17°01' W 061°46'0 0.0
2018-Apr-13 23:58N 17°01' W 061°46'0 0.0
2018-Apr-13 23:28N 17°01' W 061°46'0 0.0
2018-Apr-13 22:58N 17°01' W 061°46'0 0.0
2018-Apr-13 22:28N 17°01' W 061°46'0 0.0
2018-Apr-13 21:58N 17°01' W 061°46'0 0.0
2018-Apr-13 21:28N 17°01' W 061°46'0 0.0
2018-Apr-13 20:58N 17°01' W 061°46'0 0.0
2018-Apr-13 20:28N 17°01' W 061°46'0 0.0
2018-Apr-13 19:58N 17°01' W 061°46'0 0.0
2018-Apr-13 19:28N 17°01' W 061°46'0 0.0
2018-Apr-13 18:58N 17°01' W 061°46'0 0.0
2018-Apr-13 18:28N 17°01' W 061°46'0 0.0
2018-Apr-13 17:58N 17°01' W 061°46'0 0.0
2018-Apr-13 17:28N 17°01' W 061°46'0 0.0
2018-Apr-13 16:58N 17°01' W 061°46'0 0.0
2018-Apr-13 16:28N 17°01' W 061°46'0 0.0
2018-Apr-13 15:58N 17°01' W 061°46'0 0.0
2018-Apr-13 15:28N 17°01' W 061°46'0 0.0
2018-Apr-13 14:58N 17°01' W 061°46'0 0.0
2018-Apr-13 14:28N 17°01' W 061°46'0 0.0
2018-Apr-13 14:00N 17°01' W 061°46'0 0.0
2018-Apr-13 13:30N 17°01' W 061°46'0 0.0
2018-Apr-13 13:00N 17°01' W 061°46'0 0.0
2018-Apr-13 12:27N 17°01' W 061°46'0 0.0
2018-Apr-13 12:00N 17°01' W 061°46'0 0.0
2018-Apr-13 11:30N 17°01' W 061°46'0 0.0
2018-Apr-13 11:00N 17°01' W 061°46'0 0.0
2018-Apr-13 10:27N 17°01' W 061°46'0 0.0
2018-Apr-13 10:00N 17°01' W 061°46'0 0.0
2018-Apr-13 09:30N 17°01' W 061°46'0 0.0
2018-Apr-13 09:00N 17°01' W 061°46'0 0.0
2018-Apr-13 08:30N 17°01' W 061°46'0 0.0
2018-Apr-13 08:00N 17°01' W 061°46'0 0.0
2018-Apr-13 07:30N 17°01' W 061°46'0 0.0
2018-Apr-13 07:00N 17°01' W 061°46'0 0.0
2018-Apr-13 06:30N 17°01' W 061°46'0 0.0
2018-Apr-13 06:00N 17°01' W 061°46'0 0.0
2018-Apr-13 05:30N 17°01' W 061°46'0 0.0
2018-Apr-13 05:00N 17°01' W 061°46'0 0.0
2018-Apr-13 04:30N 17°01' W 061°46'0 0.0
2018-Apr-13 04:00N 17°01' W 061°46'0 0.0
2018-Apr-13 03:30N 17°01' W 061°46'0 0.0
2018-Apr-13 03:00N 17°01' W 061°46'0 0.0
2018-Apr-13 02:30N 17°01' W 061°46'0 0.0
2018-Apr-13 02:00N 17°01' W 061°46'0 0.0
2018-Apr-13 01:30N 17°01' W 061°46'0 0.0
2018-Apr-13 01:00N 17°01' W 061°46'0 0.0
2018-Apr-13 00:30N 17°01' W 061°46'0 0.0
2018-Apr-13 00:00N 17°01' W 061°46'0 0.0
2018-Apr-12 23:30N 17°01' W 061°46'0 0.0
2018-Apr-12 23:00N 17°01' W 061°46'0 0.0
2018-Apr-12 22:30N 17°01' W 061°46'0 0.0
2018-Apr-12 22:00N 17°01' W 061°46'0 0.0
2018-Apr-12 21:30N 17°01' W 061°46'0 0.0
2018-Apr-12 21:00N 17°01' W 061°46'0 0.0
2018-Apr-12 20:30N 17°01' W 061°46'0 0.0
2018-Apr-12 20:00N 17°01' W 061°46'0 0.0
2018-Apr-12 19:30N 17°01' W 061°46'0 0.0
2018-Apr-12 19:00N 17°01' W 061°46'0 0.0
2018-Apr-12 18:30N 17°01' W 061°46'0 0.0
2018-Apr-12 18:00N 17°01' W 061°46'0 0.0
2018-Apr-12 17:27N 17°01' W 061°46'0 0.2
2018-Apr-12 16:58N 17°01' W 061°46'0 0.0
2018-Apr-12 16:28N 17°01' W 061°46'0 0.0
2018-Apr-12 15:58N 17°01' W 061°46'0 0.0
2018-Apr-12 15:28N 17°01' W 061°46'0 0.0
2018-Apr-12 14:58N 17°01' W 061°46'0 0.0
2018-Apr-12 14:28N 17°01' W 061°46'0 0.0
2018-Apr-12 13:58N 17°01' W 061°46'0 0.0
2018-Apr-12 13:28N 17°01' W 061°46'0 0.0
2018-Apr-12 12:58N 17°01' W 061°46'0 0.0
2018-Apr-12 12:28N 17°01' W 061°46'0 0.0
2018-Apr-12 11:58N 17°01' W 061°46'0 0.0
2018-Apr-12 11:28N 17°01' W 061°46'0 0.0
2018-Apr-12 10:58N 17°01' W 061°46'0 0.0
2018-Apr-12 10:28N 17°01' W 061°46'0 0.0
2018-Apr-12 09:58N 17°01' W 061°46'0 0.0
2018-Apr-12 09:28N 17°01' W 061°46'0 0.0
2018-Apr-12 08:58N 17°01' W 061°46'0 0.0
2018-Apr-12 08:28N 17°01' W 061°46'0 0.0
2018-Apr-12 07:58N 17°01' W 061°46'0 0.0
2018-Apr-12 07:28N 17°01' W 061°46'0 0.0
2018-Apr-12 06:58N 17°01' W 061°46'0 0.0
2018-Apr-12 06:28N 17°01' W 061°46'0 0.0
2018-Apr-12 05:58N 17°01' W 061°46'0 0.0
2018-Apr-12 05:28N 17°01' W 061°46'0 0.0
2018-Apr-12 04:58N 17°01' W 061°46'0 0.0
2018-Apr-12 04:28N 17°01' W 061°46'0 0.0
2018-Apr-12 03:58N 17°01' W 061°46'0 0.0
2018-Apr-12 03:28N 17°01' W 061°46'0 0.0
2018-Apr-12 02:58N 17°01' W 061°46'0 0.0
2018-Apr-12 02:28N 17°01' W 061°46'0 0.0
2018-Apr-12 01:58N 17°01' W 061°46'0 0.0
2018-Apr-12 01:28N 17°01' W 061°46'0 0.0
2018-Apr-12 00:58N 17°01' W 061°46'0 0.0
2018-Apr-12 00:28N 17°01' W 061°46'0 0.0
2018-Apr-11 23:58N 17°01' W 061°46'0 0.0
2018-Apr-11 23:28N 17°01' W 061°46'0 0.0
2018-Apr-11 22:58N 17°01' W 061°46'0 0.0
2018-Apr-11 22:28N 17°01' W 061°46'0 0.0
2018-Apr-11 21:58N 17°01' W 061°46'0 0.0
2018-Apr-11 21:28N 17°01' W 061°46'0 0.0
2018-Apr-11 20:58N 17°01' W 061°46'0 0.0
2018-Apr-11 20:28N 17°01' W 061°46'0 0.0
2018-Apr-11 19:58N 17°01' W 061°46'0 0.0
2018-Apr-11 19:28N 17°01' W 061°46'0 0.0
2018-Apr-11 18:58N 17°01' W 061°46'0 0.0
2018-Apr-11 18:28N 17°01' W 061°46'0 0.0
2018-Apr-11 17:58N 17°01' W 061°46'0 0.0
2018-Apr-11 17:28N 17°01' W 061°46'0 0.0
2018-Apr-11 16:58N 17°01' W 061°46'0 0.0
2018-Apr-11 16:28N 17°01' W 061°46'0 0.0
2018-Apr-11 15:58N 17°01' W 061°46'0 0.0
2018-Apr-11 15:28N 17°01' W 061°46'0 0.0
2018-Apr-11 14:58N 17°01' W 061°46'0 0.0
2018-Apr-11 14:28N 17°01' W 061°46'0 0.0
2018-Apr-11 13:58N 17°01' W 061°46'0 0.0
2018-Apr-11 13:28N 17°01' W 061°46'0 0.0
2018-Apr-11 12:58N 17°01' W 061°46'0 0.0
2018-Apr-11 12:28N 17°01' W 061°46'0 0.0
2018-Apr-11 11:58N 17°01' W 061°46'0 0.0
2018-Apr-11 11:28N 17°01' W 061°46'0 0.0
2018-Apr-11 10:58N 17°01' W 061°46'0 0.0
2018-Apr-11 10:28N 17°01' W 061°46'0 0.0
2018-Apr-11 09:58N 17°01' W 061°46'0 0.0
2018-Apr-11 09:28N 17°01' W 061°46'0 0.0
2018-Apr-11 08:58N 17°01' W 061°46'0 0.0
2018-Apr-11 08:28N 17°01' W 061°46'0 0.0
2018-Apr-11 07:58N 17°01' W 061°46'0 0.0
2018-Apr-11 07:28N 17°01' W 061°46'0 0.0
2018-Apr-11 06:58N 17°01' W 061°46'0 0.0
2018-Apr-11 06:28N 17°01' W 061°46'0 0.0
2018-Apr-11 05:58N 17°01' W 061°46'0 0.0
2018-Apr-11 05:28N 17°01' W 061°46'0 0.0
2018-Apr-11 04:58N 17°01' W 061°46'0 0.0
2018-Apr-11 04:28N 17°01' W 061°46'0 0.0
2018-Apr-11 03:58N 17°01' W 061°46'0 0.0
2018-Apr-11 03:28N 17°01' W 061°46'0 0.0
2018-Apr-11 02:58N 17°01' W 061°46'0 0.0
2018-Apr-11 02:28N 17°01' W 061°46'0 0.0
2018-Apr-11 01:58N 17°01' W 061°46'0 0.0
2018-Apr-11 01:28N 17°01' W 061°46'0 0.0
2018-Apr-11 00:58N 17°01' W 061°46'0 0.0
2018-Apr-11 00:28N 17°01' W 061°46'0 0.0
2018-Apr-10 23:58N 17°01' W 061°46'0 0.0
2018-Apr-10 23:28N 17°01' W 061°46'0 0.0
2018-Apr-10 22:58N 17°01' W 061°46'0 0.0
2018-Apr-10 22:28N 17°01' W 061°46'0 0.0
2018-Apr-10 21:58N 17°01' W 061°46'0 0.0
2018-Apr-10 21:28N 17°01' W 061°46'0 0.0
2018-Apr-10 20:58N 17°01' W 061°46'0 0.0
2018-Apr-10 20:28N 17°01' W 061°46'0 0.0
2018-Apr-10 19:58N 17°01' W 061°46'0 0.0
2018-Apr-10 19:28N 17°01' W 061°46'0 0.0
2018-Apr-10 18:58N 17°01' W 061°46'0 0.0
2018-Apr-10 18:28N 17°01' W 061°46'0 0.0
2018-Apr-10 17:58N 17°01' W 061°46'0 0.0
2018-Apr-10 17:28N 17°01' W 061°46'0 0.0
2018-Apr-10 16:58N 17°01' W 061°46'0 0.0
2018-Apr-10 16:28N 17°01' W 061°46'0 0.0
2018-Apr-10 15:58N 17°01' W 061°46'0 0.0
2018-Apr-10 15:28N 17°01' W 061°46'0 0.0
2018-Apr-10 14:58N 17°01' W 061°46'0 0.0
2018-Apr-10 14:28N 17°01' W 061°46'0 0.0
2018-Apr-10 13:58N 17°01' W 061°46'0 0.0
2018-Apr-10 13:28N 17°01' W 061°46'0 0.0
2018-Apr-10 12:55N 17°01' W 061°46'0 0.0
2018-Apr-10 12:28N 17°01' W 061°46'0 0.0
2018-Apr-10 11:58N 17°01' W 061°46'0 0.0
2018-Apr-10 11:28N 17°01' W 061°46'0 0.0
2018-Apr-10 10:58N 17°01' W 061°46'0 0.0
2018-Apr-10 10:25N 17°01' W 061°46'0 0.0
2018-Apr-10 09:58N 17°01' W 061°46'0 0.0
2018-Apr-10 09:28N 17°01' W 061°46'0 0.0
2018-Apr-10 08:58N 17°01' W 061°46'0 0.0
2018-Apr-10 08:28N 17°01' W 061°46'0 0.0
2018-Apr-10 07:58N 17°01' W 061°46'0 0.0
2018-Apr-10 07:28N 17°01' W 061°46'0 0.0
2018-Apr-10 06:58N 17°01' W 061°46'0 0.0
2018-Apr-10 06:28N 17°01' W 061°46'0 0.0
2018-Apr-10 05:58N 17°01' W 061°46'0 0.0
2018-Apr-10 05:28N 17°01' W 061°46'0 0.0
2018-Apr-10 04:58N 17°01' W 061°46'0 0.0
2018-Apr-10 04:28N 17°01' W 061°46'0 0.0
2018-Apr-10 03:58N 17°01' W 061°46'0 0.0
2018-Apr-10 03:28N 17°01' W 061°46'0 0.0
2018-Apr-10 02:58N 17°01' W 061°46'0 0.0
2018-Apr-10 02:28N 17°01' W 061°46'0 0.0
2018-Apr-10 01:58N 17°01' W 061°46'0 0.0
2018-Apr-10 01:28N 17°01' W 061°46'0 0.0
2018-Apr-10 00:58N 17°01' W 061°46'0 0.0
2018-Apr-10 00:28N 17°01' W 061°46'0 0.0
2018-Apr-09 23:58N 17°01' W 061°46'0 0.0
2018-Apr-09 23:28N 17°01' W 061°46'0 0.0
2018-Apr-09 22:58N 17°01' W 061°46'0 0.0
2018-Apr-09 22:28N 17°01' W 061°46'0 0.0
2018-Apr-09 21:58N 17°01' W 061°46'0 0.0
2018-Apr-09 21:28N 17°01' W 061°46'0 0.0
2018-Apr-09 20:58N 17°01' W 061°46'0 0.0
2018-Apr-09 20:28N 17°01' W 061°46'0 0.0
2018-Apr-09 19:58N 17°01' W 061°46'0 0.0
2018-Apr-09 19:28N 17°01' W 061°46'0 0.0
2018-Apr-09 18:58N 17°01' W 061°46'0 0.0
2018-Apr-09 18:28N 17°01' W 061°46'0 0.0
2018-Apr-09 17:58N 17°01' W 061°46'0 0.0
2018-Apr-09 17:28N 17°01' W 061°46'0 0.0
2018-Apr-09 16:58N 17°01' W 061°46'0 0.0
2018-Apr-09 16:28N 17°01' W 061°46'0 0.0
2018-Apr-09 15:58N 17°01' W 061°46'0 0.0
2018-Apr-09 15:28N 17°01' W 061°46'0 0.0
2018-Apr-09 14:58N 17°01' W 061°46'0 0.0
2018-Apr-09 14:28N 17°01' W 061°46'0 0.0
2018-Apr-09 13:58N 17°01' W 061°46'0 0.0
2018-Apr-09 13:28N 17°01' W 061°46'0 0.0
2018-Apr-09 12:58N 17°01' W 061°46'0 0.0
2018-Apr-09 12:28N 17°01' W 061°46'0 0.0
2018-Apr-09 11:58N 17°01' W 061°46'0 0.0
2018-Apr-09 11:28N 17°01' W 061°46'0 0.0
2018-Apr-09 10:58N 17°01' W 061°46'0 0.0
2018-Apr-09 10:28N 17°01' W 061°46'0 0.0
2018-Apr-09 09:58N 17°01' W 061°46'0 0.0
2018-Apr-09 09:28N 17°01' W 061°46'0 0.0
2018-Apr-09 08:58N 17°01' W 061°46'0 0.0
2018-Apr-09 08:28N 17°01' W 061°46'0 0.0
2018-Apr-09 07:58N 17°01' W 061°46'0 0.0
2018-Apr-09 07:28N 17°01' W 061°46'0 0.0
2018-Apr-09 06:58N 17°01' W 061°46'0 0.0
2018-Apr-09 06:28N 17°01' W 061°46'0 0.0
2018-Apr-09 05:58N 17°01' W 061°46'0 0.0
2018-Apr-09 05:28N 17°01' W 061°46'0 0.0
2018-Apr-09 04:58N 17°01' W 061°46'0 0.0
2018-Apr-09 04:28N 17°01' W 061°46'0 0.0
2018-Apr-09 03:58N 17°01' W 061°46'0 0.0
2018-Apr-09 03:28N 17°01' W 061°46'0 0.0
2018-Apr-09 02:58N 17°01' W 061°46'0 0.0
2018-Apr-09 02:28N 17°01' W 061°46'0 0.0
2018-Apr-09 01:58N 17°01' W 061°46'0 0.0
2018-Apr-09 01:28N 17°01' W 061°46'0 0.0
2018-Apr-09 00:58N 17°01' W 061°46'0 0.0
2018-Apr-09 00:28N 17°01' W 061°46'0 0.0
2018-Apr-08 23:58N 17°01' W 061°46'0 0.0
2018-Apr-08 23:28N 17°01' W 061°46'0 0.0
2018-Apr-08 22:58N 17°01' W 061°46'0 0.0
2018-Apr-08 22:28N 17°01' W 061°46'0 0.0
2018-Apr-08 21:58N 17°01' W 061°46'0 0.0
2018-Apr-08 21:28N 17°01' W 061°46'0 0.0
2018-Apr-08 20:58N 17°01' W 061°46'  
Track history (hours):
 
Tides and Currents Weather Stations Pressure Air Temp Water Temp Dewpoint Dewpoint Depression Visibility Wind Speed Wind Dir Waves Ship Positions

Ocean Club

Owner: Bag Ocean Club LLC, Fernandina Beach, FL. More information available from US FCC via Universal Licensing System and Coast Guard Vessel Documentation Center.

Last reported at 2018-Apr-18 20:48 UTC. Time now 2018-Apr-19 23:23 UTC.
Position N 19°43' W 069°60'.

Length 37 m; draft 2 m.

Type: Pleasure craft. MMSI: 367768290.

Date/timePositionNaut miles runAvg speedWind from/ knotsBaromVisibWave heightAir tempDewpointWater temp
2018-Apr-18 20:48N 19°43' W 069°60'3 9.6
2018-Apr-18 20:30N 19°43' W 069°57'5 9.7
2018-Apr-18 20:00N 19°41' W 069°52'4 7.5
2018-Apr-18 19:30N 19°40' W 069°48'5 9.5
2018-Apr-18 19:00N 19°38' W 069°43'6 9.6
2018-Apr-18 18:25N 19°37' W 069°38'4 9.7
2018-Apr-18 18:00N 19°35' W 069°34'5 9.8
2018-Apr-18 17:30N 19°34' W 069°29'610.1
2018-Apr-18 16:53N 19°32' W 069°22'351 9.9
2018-Apr-17 05:39N 17°46' W 063°29'310.1
2018-Apr-17 05:18N 17°45' W 063°26'3 9.6
2018-Apr-17 04:59N 17°44' W 063°23'610.0
2018-Apr-17 04:25N 17°42' W 063°18'510.1
2018-Apr-17 03:58N 17°40' W 063°13'510.1
2018-Apr-17 03:27N 17°38' W 063°08'5 9.7
2018-Apr-17 02:59N 17°37' W 063°04'4310.2
2018-Apr-16 22:45N 17°16' W 062°24'310.9
2018-Apr-16 22:30N 17°14' W 062°21'510.8
2018-Apr-16 22:00N 17°12' W 062°17'510.4
2018-Apr-16 21:30N 17°09' W 062°12'510.1
2018-Apr-16 21:00N 17°06' W 062°07'5 9.9
2018-Apr-16 20:30N 17°04' W 062°03'5 9.9
2018-Apr-16 20:00N 17°02' W 061°58'5 9.9
2018-Apr-16 19:30N 16°60' W 061°53'5 9.8
2018-Apr-16 19:00N 17°00' W 061°48'2 4.5
2018-Apr-16 18:30N 17°01' W 061°46'0 0.0
2018-Apr-16 17:58N 17°01' W 061°46'0 0.0
2018-Apr-16 17:28N 17°01' W 061°46'0 0.0
2018-Apr-16 16:58N 17°01' W 061°46'0 0.0
2018-Apr-16 16:28N 17°01' W 061°46'0 0.0
2018-Apr-16 15:58N 17°01' W 061°46'0 0.0
2018-Apr-16 15:28N 17°01' W 061°46'0 0.0
2018-Apr-16 14:58N 17°01' W 061°46'0 0.0
2018-Apr-16 14:28N 17°01' W 061°46'0 0.0
2018-Apr-16 13:58N 17°01' W 061°46'0 0.0
2018-Apr-16 13:28N 17°01' W 061°46'0 0.0
2018-Apr-16 12:58N 17°01' W 061°46'0 0.0
2018-Apr-16 12:28N 17°01' W 061°46'0 0.0
2018-Apr-16 11:58N 17°01' W 061°46'0 0.0
2018-Apr-16 11:28N 17°01' W 061°46'0 0.0
2018-Apr-16 10:58N 17°01' W 061°46'0 0.0
2018-Apr-16 10:28N 17°01' W 061°46'0 0.0
2018-Apr-16 09:58N 17°01' W 061°46'0 0.0
2018-Apr-16 09:28N 17°01' W 061°46'0 0.0
2018-Apr-16 08:58N 17°01' W 061°46'0 0.0
2018-Apr-16 08:28N 17°01' W 061°46'0 0.0
2018-Apr-16 07:58N 17°01' W 061°46'0 0.0
2018-Apr-16 07:28N 17°01' W 061°46'0 0.0
2018-Apr-16 06:58N 17°01' W 061°46'0 0.0
2018-Apr-16 06:28N 17°01' W 061°46'0 0.0
2018-Apr-16 05:58N 17°01' W 061°46'0 0.0
2018-Apr-16 05:28N 17°01' W 061°46'0 0.0
2018-Apr-16 04:58N 17°01' W 061°46'0 0.0
2018-Apr-16 04:28N 17°01' W 061°46'0 0.0
2018-Apr-16 03:58N 17°01' W 061°46'0 0.0
2018-Apr-16 03:28N 17°01' W 061°46'0 0.0
2018-Apr-16 02:58N 17°01' W 061°46'0 0.0
2018-Apr-16 02:28N 17°01' W 061°46'0 0.0
2018-Apr-16 01:58N 17°01' W 061°46'0 0.0
2018-Apr-16 01:28N 17°01' W 061°46'0 0.0
2018-Apr-16 00:58N 17°01' W 061°46'0 0.0
2018-Apr-16 00:28N 17°01' W 061°46'0 0.0
2018-Apr-15 23:58N 17°01' W 061°46'0 0.0
2018-Apr-15 23:28N 17°01' W 061°46'0 0.0
2018-Apr-15 22:58N 17°01' W 061°46'0 0.0
2018-Apr-15 22:28N 17°01' W 061°46'0 0.0
2018-Apr-15 21:58N 17°01' W 061°46'0 0.0
2018-Apr-15 21:28N 17°01' W 061°46'0 0.0
2018-Apr-15 20:58N 17°01' W 061°46'0 0.0
2018-Apr-15 20:28N 17°01' W 061°46'0 0.0
2018-Apr-15 19:55N 17°01' W 061°46'0 0.0
2018-Apr-15 19:28N 17°01' W 061°46'0 0.0
2018-Apr-15 18:58N 17°01' W 061°46'0 0.0
2018-Apr-15 18:28N 17°01' W 061°46'0 0.0
2018-Apr-15 17:58N 17°01' W 061°46'0 0.0
2018-Apr-15 17:28N 17°01' W 061°46'0 0.0
2018-Apr-15 16:58N 17°01' W 061°46'0 0.0
2018-Apr-15 16:28N 17°01' W 061°46'0 0.0
2018-Apr-15 15:58N 17°01' W 061°46'0 0.0
2018-Apr-15 15:28N 17°01' W 061°46'0 0.0
2018-Apr-15 14:58N 17°01' W 061°46'0 0.0
2018-Apr-15 14:28N 17°01' W 061°46'0 0.0
2018-Apr-15 13:58N 17°01' W 061°46'0 0.0
2018-Apr-15 13:28N 17°01' W 061°46'0 0.0
2018-Apr-15 12:58N 17°01' W 061°46'0 0.0
2018-Apr-15 12:28N 17°01' W 061°46'0 0.0
2018-Apr-15 11:58N 17°01' W 061°46'0 0.0
2018-Apr-15 11:28N 17°01' W 061°46'0 0.0
2018-Apr-15 10:58N 17°01' W 061°46'0 0.0
2018-Apr-15 10:28N 17°01' W 061°46'0 0.0
2018-Apr-15 09:58N 17°01' W 061°46'0 0.0
2018-Apr-15 09:28N 17°01' W 061°46'0 0.0
2018-Apr-15 08:58N 17°01' W 061°46'0 0.0
2018-Apr-15 08:28N 17°01' W 061°46'0 0.0
2018-Apr-15 07:58N 17°01' W 061°46'0 0.0
2018-Apr-15 07:28N 17°01' W 061°46'0 0.0
2018-Apr-15 06:58N 17°01' W 061°46'0 0.0
2018-Apr-15 06:28N 17°01' W 061°46'0 0.0
2018-Apr-15 05:58N 17°01' W 061°46'0 0.0
2018-Apr-15 05:28N 17°01' W 061°46'0 0.0
2018-Apr-15 04:58N 17°01' W 061°46'0 0.0
2018-Apr-15 04:28N 17°01' W 061°46'0 0.0
2018-Apr-15 03:58N 17°01' W 061°46'0 0.0
2018-Apr-15 03:28N 17°01' W 061°46'0 0.0
2018-Apr-15 02:58N 17°01' W 061°46'0 0.0
2018-Apr-15 02:28N 17°01' W 061°46'0 0.0
2018-Apr-15 01:58N 17°01' W 061°46'0 0.0
2018-Apr-15 01:28N 17°01' W 061°46'0 0.0
2018-Apr-15 00:58N 17°01' W 061°46'0 0.0
2018-Apr-15 00:28N 17°01' W 061°46'0 0.0
2018-Apr-14 23:58N 17°01' W 061°46'0 0.0
2018-Apr-14 23:28N 17°01' W 061°46'0 0.0
2018-Apr-14 22:58N 17°01' W 061°46'0 0.0
2018-Apr-14 22:28N 17°01' W 061°46'0 0.0
2018-Apr-14 21:58N 17°01' W 061°46'0 0.0
2018-Apr-14 21:28N 17°01' W 061°46'0 0.0
2018-Apr-14 20:58N 17°01' W 061°46'0 0.0
2018-Apr-14 20:28N 17°01' W 061°46'0 0.0
2018-Apr-14 19:58N 17°01' W 061°46'0 0.0
2018-Apr-14 19:28N 17°01' W 061°46'0 0.0
2018-Apr-14 18:58N 17°01' W 061°46'0 0.0
2018-Apr-14 18:28N 17°01' W 061°46'0 0.0
2018-Apr-14 17:58N 17°01' W 061°46'0 0.0
2018-Apr-14 17:28N 17°01' W 061°46'0 0.0
2018-Apr-14 16:58N 17°01' W 061°46'0 0.0
2018-Apr-14 16:28N 17°01' W 061°46'0 0.0
2018-Apr-14 15:58N 17°01' W 061°46'0 0.0
2018-Apr-14 15:28N 17°01' W 061°46'0 0.0
2018-Apr-14 14:58N 17°01' W 061°46'0 0.0
2018-Apr-14 14:28N 17°01' W 061°46'0 0.0
2018-Apr-14 13:58N 17°01' W 061°46'0 0.0
2018-Apr-14 13:28N 17°01' W 061°46'0 0.0
2018-Apr-14 12:58N 17°01' W 061°46'0 0.0
2018-Apr-14 12:28N 17°01' W 061°46'0 0.0
2018-Apr-14 11:58N 17°01' W 061°46'0 0.0
2018-Apr-14 11:28N 17°01' W 061°46'0 0.0
2018-Apr-14 10:58N 17°01' W 061°46'0 0.0
2018-Apr-14 10:28N 17°01' W 061°46'0 0.0
2018-Apr-14 09:58N 17°01' W 061°46'0 0.0
2018-Apr-14 09:28N 17°01' W 061°46'0 0.0
2018-Apr-14 08:58N 17°01' W 061°46'0 0.0
2018-Apr-14 08:28N 17°01' W 061°46'0 0.0
2018-Apr-14 07:58N 17°01' W 061°46'0 0.0
2018-Apr-14 07:28N 17°01' W 061°46'0 0.0
2018-Apr-14 06:58N 17°01' W 061°46'0 0.0
2018-Apr-14 06:28N 17°01' W 061°46'0 0.0
2018-Apr-14 05:58N 17°01' W 061°46'0 0.0
2018-Apr-14 05:28N 17°01' W 061°46'0 0.0
2018-Apr-14 04:58N 17°01' W 061°46'0 0.0
2018-Apr-14 04:28N 17°01' W 061°46'0 0.0
2018-Apr-14 03:58N 17°01' W 061°46'0 0.0
2018-Apr-14 03:28N 17°01' W 061°46'0 0.0
2018-Apr-14 02:58N 17°01' W 061°46'0 0.0
2018-Apr-14 02:28N 17°01' W 061°46'0 0.0
2018-Apr-14 01:55N 17°01' W 061°46'0 0.0
2018-Apr-14 01:28N 17°01' W 061°46'0 0.0
2018-Apr-14 00:58N 17°01' W 061°46'0 0.0
2018-Apr-14 00:28N 17°01' W 061°46'0 0.0
2018-Apr-13 23:58N 17°01' W 061°46'0 0.0
2018-Apr-13 23:28N 17°01' W 061°46'0 0.0
2018-Apr-13 22:58N 17°01' W 061°46'0 0.0
2018-Apr-13 22:28N 17°01' W 061°46'0 0.0
2018-Apr-13 21:58N 17°01' W 061°46'0 0.0
2018-Apr-13 21:28N 17°01' W 061°46'0 0.0
2018-Apr-13 20:58N 17°01' W 061°46'0 0.0
2018-Apr-13 20:28N 17°01' W 061°46'0 0.0
2018-Apr-13 19:58N 17°01' W 061°46'0 0.0
2018-Apr-13 19:28N 17°01' W 061°46'0 0.0
2018-Apr-13 18:58N 17°01' W 061°46'0 0.0
2018-Apr-13 18:28N 17°01' W 061°46'0 0.0
2018-Apr-13 17:58N 17°01' W 061°46'0 0.0
2018-Apr-13 17:28N 17°01' W 061°46'0 0.0
2018-Apr-13 16:58N 17°01' W 061°46'0 0.0
2018-Apr-13 16:28N 17°01' W 061°46'0 0.0
2018-Apr-13 15:58N 17°01' W 061°46'0 0.0
2018-Apr-13 15:28N 17°01' W 061°46'0 0.0
2018-Apr-13 14:58N 17°01' W 061°46'0 0.0
2018-Apr-13 14:28N 17°01' W 061°46'0 0.0
2018-Apr-13 14:00N 17°01' W 061°46'0 0.0
2018-Apr-13 13:30N 17°01' W 061°46'0 0.0
2018-Apr-13 13:00N 17°01' W 061°46'0 0.0
2018-Apr-13 12:27N 17°01' W 061°46'0 0.0
2018-Apr-13 12:00N 17°01' W 061°46'0 0.0
2018-Apr-13 11:30N 17°01' W 061°46'0 0.0
2018-Apr-13 11:00N 17°01' W 061°46'0 0.0
2018-Apr-13 10:27N 17°01' W 061°46'0 0.0
2018-Apr-13 10:00N 17°01' W 061°46'0 0.0
2018-Apr-13 09:30N 17°01' W 061°46'0 0.0
2018-Apr-13 09:00N 17°01' W 061°46'0 0.0
2018-Apr-13 08:30N 17°01' W 061°46'0 0.0
2018-Apr-13 08:00N 17°01' W 061°46'0 0.0
2018-Apr-13 07:30N 17°01' W 061°46'0 0.0
2018-Apr-13 07:00N 17°01' W 061°46'0 0.0
2018-Apr-13 06:30N 17°01' W 061°46'0 0.0
2018-Apr-13 06:00N 17°01' W 061°46'0 0.0
2018-Apr-13 05:30N 17°01' W 061°46'0 0.0
2018-Apr-13 05:00N 17°01' W 061°46'0 0.0
2018-Apr-13 04:30N 17°01' W 061°46'0 0.0
2018-Apr-13 04:00N 17°01' W 061°46'0 0.0
2018-Apr-13 03:30N 17°01' W 061°46'0 0.0
2018-Apr-13 03:00N 17°01' W 061°46'0 0.0
2018-Apr-13 02:30N 17°01' W 061°46'0 0.0
2018-Apr-13 02:00N 17°01' W 061°46'0 0.0
2018-Apr-13 01:30N 17°01' W 061°46'0 0.0
2018-Apr-13 01:00N 17°01' W 061°46'0 0.0
2018-Apr-13 00:30N 17°01' W 061°46'0 0.0
2018-Apr-13 00:00N 17°01' W 061°46'0 0.0
2018-Apr-12 23:30N 17°01' W 061°46'0 0.0
2018-Apr-12 23:00N 17°01' W 061°46'0 0.0
2018-Apr-12 22:30N 17°01' W 061°46'0 0.0
2018-Apr-12 22:00N 17°01' W 061°46'0 0.0
2018-Apr-12 21:30N 17°01' W 061°46'0 0.0
2018-Apr-12 21:00N 17°01' W 061°46'0 0.0
2018-Apr-12 20:30N 17°01' W 061°46'0 0.0
2018-Apr-12 20:00N 17°01' W 061°46'0 0.0
2018-Apr-12 19:30N 17°01' W 061°46'0 0.0
2018-Apr-12 19:00N 17°01' W 061°46'0 0.0
2018-Apr-12 18:30N 17°01' W 061°46'0 0.0
2018-Apr-12 18:00N 17°01' W 061°46'0 0.0
2018-Apr-12 17:27N 17°01' W 061°46'0 0.2
2018-Apr-12 16:58N 17°01' W 061°46'0 0.0
2018-Apr-12 16:28N 17°01' W 061°46'0 0.0
2018-Apr-12 15:58N 17°01' W 061°46'0 0.0
2018-Apr-12 15:28N 17°01' W 061°46'0 0.0
2018-Apr-12 14:58N 17°01' W 061°46'0 0.0
2018-Apr-12 14:28N 17°01' W 061°46'0 0.0
2018-Apr-12 13:58N 17°01' W 061°46'0 0.0
2018-Apr-12 13:28N 17°01' W 061°46'0 0.0
2018-Apr-12 12:58N 17°01' W 061°46'0 0.0
2018-Apr-12 12:28N 17°01' W 061°46'0 0.0
2018-Apr-12 11:58N 17°01' W 061°46'0 0.0
2018-Apr-12 11:28N 17°01' W 061°46'0 0.0
2018-Apr-12 10:58N 17°01' W 061°46'0 0.0
2018-Apr-12 10:28N 17°01' W 061°46'0 0.0
2018-Apr-12 09:58N 17°01' W 061°46'0 0.0
2018-Apr-12 09:28N 17°01' W 061°46'0 0.0
2018-Apr-12 08:58N 17°01' W 061°46'0 0.0
2018-Apr-12 08:28N 17°01' W 061°46'0 0.0
2018-Apr-12 07:58N 17°01' W 061°46'0 0.0
2018-Apr-12 07:28N 17°01' W 061°46'0 0.0
2018-Apr-12 06:58N 17°01' W 061°46'0 0.0
2018-Apr-12 06:28N 17°01' W 061°46'0 0.0
2018-Apr-12 05:58N 17°01' W 061°46'0 0.0
2018-Apr-12 05:28N 17°01' W 061°46'0 0.0
2018-Apr-12 04:58N 17°01' W 061°46'0 0.0
2018-Apr-12 04:28N 17°01' W 061°46'0 0.0
2018-Apr-12 03:58N 17°01' W 061°46'0 0.0
2018-Apr-12 03:28N 17°01' W 061°46'0 0.0
2018-Apr-12 02:58N 17°01' W 061°46'0 0.0
2018-Apr-12 02:28N 17°01' W 061°46'0 0.0
2018-Apr-12 01:58N 17°01' W 061°46'0 0.0
2018-Apr-12 01:28N 17°01' W 061°46'0 0.0
2018-Apr-12 00:58N 17°01' W 061°46'0 0.0
2018-Apr-12 00:28N 17°01' W 061°46'0 0.0
2018-Apr-11 23:58N 17°01' W 061°46'0 0.0
2018-Apr-11 23:28N 17°01' W 061°46'0 0.0
2018-Apr-11 22:58N 17°01' W 061°46'0 0.0
2018-Apr-11 22:28N 17°01' W 061°46'0 0.0
2018-Apr-11 21:58N 17°01' W 061°46'0 0.0
2018-Apr-11 21:28N 17°01' W 061°46'0 0.0
2018-Apr-11 20:58N 17°01' W 061°46'0 0.0
2018-Apr-11 20:28N 17°01' W 061°46'0 0.0
2018-Apr-11 19:58N 17°01' W 061°46'0 0.0
2018-Apr-11 19:28N 17°01' W 061°46'0 0.0
2018-Apr-11 18:58N 17°01' W 061°46'0 0.0
2018-Apr-11 18:28N 17°01' W 061°46'0 0.0
2018-Apr-11 17:58N 17°01' W 061°46'0 0.0
2018-Apr-11 17:28N 17°01' W 061°46'0 0.0
2018-Apr-11 16:58N 17°01' W 061°46'0 0.0
2018-Apr-11 16:28N 17°01' W 061°46'0 0.0
2018-Apr-11 15:58N 17°01' W 061°46'0 0.0
2018-Apr-11 15:28N 17°01' W 061°46'0 0.0
2018-Apr-11 14:58N 17°01' W 061°46'0 0.0
2018-Apr-11 14:28N 17°01' W 061°46'0 0.0
2018-Apr-11 13:58N 17°01' W 061°46'0 0.0
2018-Apr-11 13:28N 17°01' W 061°46'0 0.0
2018-Apr-11 12:58N 17°01' W 061°46'0 0.0
2018-Apr-11 12:28N 17°01' W 061°46'0 0.0
2018-Apr-11 11:58N 17°01' W 061°46'0 0.0
2018-Apr-11 11:28N 17°01' W 061°46'0 0.0
2018-Apr-11 10:58N 17°01' W 061°46'0 0.0
2018-Apr-11 10:28N 17°01' W 061°46'0 0.0
2018-Apr-11 09:58N 17°01' W 061°46'0 0.0
2018-Apr-11 09:28N 17°01' W 061°46'0 0.0
2018-Apr-11 08:58N 17°01' W 061°46'0 0.0
2018-Apr-11 08:28N 17°01' W 061°46'0 0.0
2018-Apr-11 07:58N 17°01' W 061°46'0 0.0
2018-Apr-11 07:28N 17°01' W 061°46'0 0.0
2018-Apr-11 06:58N 17°01' W 061°46'0 0.0
2018-Apr-11 06:28N 17°01' W 061°46'0 0.0
2018-Apr-11 05:58N 17°01' W 061°46'0 0.0
2018-Apr-11 05:28N 17°01' W 061°46'0 0.0
2018-Apr-11 04:58N 17°01' W 061°46'0 0.0
2018-Apr-11 04:28N 17°01' W 061°46'0 0.0
2018-Apr-11 03:58N 17°01' W 061°46'0 0.0
2018-Apr-11 03:28N 17°01' W 061°46'0 0.0
2018-Apr-11 02:58N 17°01' W 061°46'0 0.0
2018-Apr-11 02:28N 17°01' W 061°46'0 0.0
2018-Apr-11 01:58N 17°01' W 061°46'0 0.0
2018-Apr-11 01:28N 17°01' W 061°46'0 0.0
2018-Apr-11 00:58N 17°01' W 061°46'0 0.0
2018-Apr-11 00:28N 17°01' W 061°46'0 0.0
2018-Apr-10 23:58N 17°01' W 061°46'0 0.0
2018-Apr-10 23:28N 17°01' W 061°46'0 0.0
2018-Apr-10 22:58N 17°01' W 061°46'0 0.0
2018-Apr-10 22:28N 17°01' W 061°46'0 0.0
2018-Apr-10 21:58N 17°01' W 061°46'0 0.0
2018-Apr-10 21:28N 17°01' W 061°46'0 0.0
2018-Apr-10 20:58N 17°01' W 061°46'0 0.0
2018-Apr-10 20:28N 17°01' W 061°46'0 0.0
2018-Apr-10 19:58N 17°01' W 061°46'0 0.0
2018-Apr-10 19:28N 17°01' W 061°46'0 0.0
2018-Apr-10 18:58N 17°01' W 061°46'0 0.0
2018-Apr-10 18:28N 17°01' W 061°46'0 0.0
2018-Apr-10 17:58N 17°01' W 061°46'0 0.0
2018-Apr-10 17:28N 17°01' W 061°46'0 0.0
2018-Apr-10 16:58N 17°01' W 061°46'0 0.0
2018-Apr-10 16:28N 17°01' W 061°46'0 0.0
2018-Apr-10 15:58N 17°01' W 061°46'0 0.0
2018-Apr-10 15:28N 17°01' W 061°46'0 0.0
2018-Apr-10 14:58N 17°01' W 061°46'0 0.0
2018-Apr-10 14:28N 17°01' W 061°46'0 0.0
2018-Apr-10 13:58N 17°01' W 061°46'0 0.0
2018-Apr-10 13:28N 17°01' W 061°46'0 0.0
2018-Apr-10 12:55N 17°01' W 061°46'0 0.0
2018-Apr-10 12:28N 17°01' W 061°46'0 0.0
2018-Apr-10 11:58N 17°01' W 061°46'0 0.0
2018-Apr-10 11:28N 17°01' W 061°46'0 0.0
2018-Apr-10 10:58N 17°01' W 061°46'0 0.0
2018-Apr-10 10:25N 17°01' W 061°46'0 0.0
2018-Apr-10 09:58N 17°01' W 061°46'0 0.0
2018-Apr-10 09:28N 17°01' W 061°46'0 0.0
2018-Apr-10 08:58N 17°01' W 061°46'0 0.0
2018-Apr-10 08:28N 17°01' W 061°46'0 0.0
2018-Apr-10 07:58N 17°01' W 061°46'0 0.0
2018-Apr-10 07:28N 17°01' W 061°46'0 0.0
2018-Apr-10 06:58N 17°01' W 061°46'0 0.0
2018-Apr-10 06:28N 17°01' W 061°46'0 0.0
2018-Apr-10 05:58N 17°01' W 061°46'0 0.0
2018-Apr-10 05:28N 17°01' W 061°46'0 0.0
2018-Apr-10 04:58N 17°01' W 061°46'0 0.0
2018-Apr-10 04:28N 17°01' W 061°46'0 0.0
2018-Apr-10 03:58N 17°01' W 061°46'0 0.0
2018-Apr-10 03:28N 17°01' W 061°46'0 0.0
2018-Apr-10 02:58N 17°01' W 061°46'0 0.0
2018-Apr-10 02:28N 17°01' W 061°46'0 0.0
2018-Apr-10 01:58N 17°01' W 061°46'0 0.0
2018-Apr-10 01:28N 17°01' W 061°46'0 0.0
2018-Apr-10 00:58N 17°01' W 061°46'0 0.0
2018-Apr-10 00:28N 17°01' W 061°46'0 0.0
2018-Apr-09 23:58N 17°01' W 061°46'0 0.0
2018-Apr-09 23:28N 17°01' W 061°46'0 0.0
2018-Apr-09 22:58N 17°01' W 061°46'0 0.0
2018-Apr-09 22:28N 17°01' W 061°46'0 0.0
2018-Apr-09 21:58N 17°01' W 061°46'0 0.0
2018-Apr-09 21:28N 17°01' W 061°46'0 0.0
2018-Apr-09 20:58N 17°01' W 061°46'0 0.0
2018-Apr-09 20:28N 17°01' W 061°46'0 0.0
2018-Apr-09 19:58N 17°01' W 061°46'0 0.0
2018-Apr-09 19:28N 17°01' W 061°46'0 0.0
2018-Apr-09 18:58N 17°01' W 061°46'0 0.0
2018-Apr-09 18:28N 17°01' W 061°46'0 0.0
2018-Apr-09 17:58N 17°01' W 061°46'0 0.0
2018-Apr-09 17:28N 17°01' W 061°46'0 0.0
2018-Apr-09 16:58N 17°01' W 061°46'0 0.0
2018-Apr-09 16:28N 17°01' W 061°46'0 0.0
2018-Apr-09 15:58N 17°01' W 061°46'0 0.0
2018-Apr-09 15:28N 17°01' W 061°46'0 0.0
2018-Apr-09 14:58N 17°01' W 061°46'0 0.0
2018-Apr-09 14:28N 17°01' W 061°46'0 0.0
2018-Apr-09 13:58N 17°01' W 061°46'0 0.0
2018-Apr-09 13:28N 17°01' W 061°46'0 0.0
2018-Apr-09 12:58N 17°01' W 061°46'0 0.0
2018-Apr-09 12:28N 17°01' W 061°46'0 0.0
2018-Apr-09 11:58N 17°01' W 061°46'0 0.0
2018-Apr-09 11:28N 17°01' W 061°46'0 0.0
2018-Apr-09 10:58N 17°01' W 061°46'0 0.0
2018-Apr-09 10:28N 17°01' W 061°46'0 0.0
2018-Apr-09 09:58N 17°01' W 061°46'0 0.0
2018-Apr-09 09:28N 17°01' W 061°46'0 0.0
2018-Apr-09 08:58N 17°01' W 061°46'0 0.0
2018-Apr-09 08:28N 17°01' W 061°46'0 0.0
2018-Apr-09 07:58N 17°01' W 061°46'0 0.0
2018-Apr-09 07:28N 17°01' W 061°46'0 0.0
2018-Apr-09 06:58N 17°01' W 061°46'0 0.0
2018-Apr-09 06:28N 17°01' W 061°46'0 0.0
2018-Apr-09 05:58N 17°01' W 061°46'0 0.0
2018-Apr-09 05:28N 17°01' W 061°46'0 0.0
2018-Apr-09 04:58N 17°01' W 061°46'0 0.0
2018-Apr-09 04:28N 17°01' W 061°46'0 0.0
2018-Apr-09 03:58N 17°01' W 061°46'0 0.0
2018-Apr-09 03:28N 17°01' W 061°46'0 0.0
2018-Apr-09 02:58N 17°01' W 061°46'0 0.0
2018-Apr-09 02:28N 17°01' W 061°46'0 0.0
2018-Apr-09 01:58N 17°01' W 061°46'0 0.0
2018-Apr-09 01:28N 17°01' W 061°46'0 0.0
2018-Apr-09 00:58N 17°01' W 061°46'0 0.0
2018-Apr-09 00:28N 17°01' W 061°46'0 0.0
2018-Apr-08 23:58N 17°01' W 061°46'0 0.0
2018-Apr-08 23:28N 17°01' W 061°46'0 0.0
2018-Apr-08 22:58N 17°01' W 061°46'0 0.0
2018-Apr-08 22:28N 17°01' W 061°46'0 0.0
2018-Apr-08 21:58N 17°01' W 061°46'0 0.0
2018-Apr-08 21:28N 17°01' W 061°46'0 0.0
2018-Apr-08 20:58N 17°01' W 061°46'  

Dump ship's entire track history